Inglewood, CA (90310)

11:22 PM PDT on September 20, 2014 (GMT -0700)
Civic Center | Change Station
CLOSE
Current Station
Personal Weather Station
Location: Inglewood, CA
Elevation: 138 ft
Nearby Weather Stations

Elev 138 ft 33.96 °N, 118.36 °W | Updated 9 minutes ago

Clear
Clear
67.6 °F
Feels Like 67.6 °F
N
1.0
Wind Variable Wind from WSW
Gusts 3.0 mph

Today
High -- | Low -- °F
--% Chance of Precip.
Yesterday
High -- | Low -- °F
Precip. -- in
6:40 AM 6:52 PM
Waning Crescent, 8% visible
Pressure 29.94 in
Visibility 10.0 miles
Clouds Clear
Dew Point 64 °F
Humidity 88%
Rainfall 0.00 in
Snow Depth 1 in , 0 in , 0 in
UV 0 out of 12
Pollen 6.80 out of 12
Ozone Good
Flu Activity Not available.
METAR KHHR 210553Z AUTO 26003KT 10SM CLR 21/17 A2994 RMK AO2 SLP137 T02110167 10239 20206 51011

More Conditions Fewer Conditions

Pressure 29.94 in
Visibility 10.0 miles
Clouds Clear
Dew Point 64 °F
Humidity 88%
Rainfall 0.00 in
Snow Depth 1 in , 0 in , 0 in
UV 0 out of 12
Pollen 6.80 out of 12
Ozone Good
Flu Activity Not available.
METAR KHHR 210553Z AUTO 26003KT 10SM CLR 21/17 A2994 RMK AO2 SLP137 T02110167 10239 20206 51011

More Conditions Fewer Conditions

10-Day Weather Forecast

Almanac

Astronomy

Sep. 20, 2014 Rise Set
Actual Time 6:40 AM PDT 6:52 PM PDT
Civil Twilight 6:15 AM PDT 7:17 PM PDT
Nautical Twilight 5:45 AM PDT 7:46 PM PDT
Astronomical Twilight 5:16 AM PDT 8:16 PM PDT
Moon 3:30 AM PDT (9/20) 4:52 PM PDT (9/20)
Length of Visible Light 13h 02m
Length of Day
12h 12m
Tomorrow will be 2m 6s shorter.
Waning Crescent, 8% of the Moon is Illuminated
Sep 21
Waning Crescent
Sep 24
New
Oct 1
First Quarter
Oct 8
Full
Oct 15
Last Quarter

Yesterday's Extremes

State Highs State Lows

Community

WunderPhotos

Upload Photos

1,755,098 photos uploaded!

Nearby

Air Quality

  Air Quality AQ Index Pollutant
Yesterday Good
OZONE
Current Good
OZONE
Sunday Good
PM10
Sunday Good
OZONE
Sunday Good
CO
Sunday Good
NO2

Snow Depth

Station Depth Elevation
Monitor Pass 1 in 8350 ft
Leavitt Lake 0 in 9400 ft
Tahoe City Cross 0 in 6750 ft
Leavitt Meadows 1 in 7200 ft
Summit Meadow 1 in 9122 ft

Earthquake Activity

City Distance Mag. Time & Date
Aguanga, California 93 miles 2.5 1:38 AM PDT
2014-09-19
Minimum magnitude displayed is 2.5.

Coastal Water Temperatures

Place Temperature
Santa Monica Pier 68.0 °F
Los Angeles, CA 66.9 °F
La Jolla, CA 72.0 °F

Nearby Weather Stations